Time;durP1;ratioP1;P1;durP2;ratioP2;P2;SDS_P1;SDS_P2;PMS_P1;PMS_P2;Temp;Humidity;BMP_temperature;BMP_pressure;BME280_temperature;BME280_humidity;BME280_pressure;Samples;Min_cycle;Max_cycle;Signal;HPM_P1;HPM_P2
2024/01/06 00:01:05;;;;;;;22.60;15.80;;;;;;;;;;5013872;28;20203;-65
2024/01/06 00:03:31;;;;;;;21.20;16.10;;;;;;;;;;5014091;28;20207;-65
2024/01/06 00:05:59;;;;;;;23.13;16.80;;;;;;;;;;5014165;28;20206;-64
2024/01/06 00:08:25;;;;;;;23.03;16.93;;;;;;;;;;5013996;28;20291;-64
2024/01/06 00:10:51;;;;;;;23.17;17.03;;;;;;;;;;5014930;28;20309;-65
2024/01/06 00:13:17;;;;;;;23.67;16.67;;;;;;;;;;5017324;28;20176;-64
2024/01/06 00:15:43;;;;;;;24.03;16.63;;;;;;;;;;5018042;28;20234;-64
2024/01/06 00:18:09;;;;;;;22.17;16.40;;;;;;;;;;5018382;28;20183;-64
2024/01/06 00:20:35;;;;;;;24.80;16.20;;;;;;;;;;5017902;28;20196;-66
2024/01/06 00:23:01;;;;;;;24.47;16.60;;;;;;;;;;5018480;28;20267;-64
2024/01/06 00:25:27;;;;;;;25.00;16.20;;;;;;;;;;5018319;28;20186;-64
2024/01/06 00:27:53;;;;;;;24.27;16.60;;;;;;;;;;5018139;28;20234;-65
2024/01/06 00:30:22;;;;;;;22.03;16.63;;;;;;;;;;5017693;28;20230;-66
2024/01/06 00:32:48;;;;;;;21.73;15.30;;;;;;;;;;5016790;28;20186;-64
2024/01/06 00:35:14;;;;;;;24.97;16.50;;;;;;;;;;5017331;28;20232;-66
2024/01/06 00:37:40;;;;;;;22.27;15.90;;;;;;;;;;5039286;23;20351;-70
2024/01/06 00:40:06;;;;;;;24.63;16.43;;;;;;;;;;5015533;28;20190;-70
2024/01/06 00:42:32;;;;;;;24.27;16.60;;;;;;;;;;5017251;28;20641;-71
2024/01/06 00:44:58;;;;;;;25.37;16.87;;;;;;;;;;5017858;28;20167;-70
2024/01/06 00:47:24;;;;;;;23.07;16.10;;;;;;;;;;5016073;28;20279;-70
2024/01/06 00:49:50;;;;;;;23.57;16.43;;;;;;;;;;5017364;28;20553;-70
2024/01/06 00:52:16;;;;;;;27.30;17.77;;;;;;;;;;5017729;28;20175;-71
2024/01/06 00:54:42;;;;;;;23.57;17.23;;;;;;;;;;5016311;28;20207;-70
2024/01/06 00:57:08;;;;;;;24.67;17.30;;;;;;;;;;5015866;28;20176;-70
2024/01/06 00:59:34;;;;;;;24.30;17.07;;;;;;;;;;5015905;28;20229;-70
2024/01/06 01:02:00;;;;;;;29.23;18.10;;;;;;;;;;5016509;28;20188;-70
2024/01/06 01:04:26;;;;;;;25.57;17.73;;;;;;;;;;5016039;28;20293;-70
2024/01/06 01:06:52;;;;;;;26.27;17.43;;;;;;;;;;5015683;28;20176;-71
2024/01/06 01:09:18;;;;;;;26.10;18.27;;;;;;;;;;5016030;28;20673;-70
2024/01/06 01:11:44;;;;;;;26.03;17.90;;;;;;;;;;5015923;28;20615;-70
2024/01/06 01:14:10;;;;;;;26.90;18.00;;;;;;;;;;5016031;28;20573;-70
2024/01/06 01:16:36;;;;;;;29.67;19.77;;;;;;;;;;5015135;28;20179;-70
2024/01/06 01:19:02;;;;;;;28.43;19.90;;;;;;;;;;5016260;28;20203;-70
2024/01/06 01:21:28;;;;;;;27.50;20.07;;;;;;;;;;5015856;28;20180;-69
2024/01/06 01:23:54;;;;;;;25.60;18.77;;;;;;;;;;5015382;28;20187;-70
2024/01/06 01:26:20;;;;;;;29.03;19.53;;;;;;;;;;5014363;28;20307;-69
2024/01/06 01:28:46;;;;;;;28.63;19.67;;;;;;;;;;5016056;28;20204;-69
2024/01/06 01:31:13;;;;;;;31.57;20.43;;;;;;;;;;5016507;28;20172;-69
2024/01/06 01:33:39;;;;;;;33.07;21.43;;;;;;;;;;5016765;28;20211;-68
2024/01/06 01:36:05;;;;;;;32.17;21.77;;;;;;;;;;5015015;28;20188;-70
2024/01/06 01:38:31;;;;;;;31.87;20.63;;;;;;;;;;4979574;28;1034584;-70
2024/01/06 01:40:58;;;;;;;33.20;21.93;;;;;;;;;;5017977;28;20184;-70
2024/01/06 01:43:24;;;;;;;37.13;22.33;;;;;;;;;;5017939;28;20214;-70
2024/01/06 01:45:54;;;;;;;36.13;21.80;;;;;;;;;;5016506;28;20176;-69
2024/01/06 01:48:20;;;;;;;35.70;21.80;;;;;;;;;;5017012;28;20230;-70
2024/01/06 01:50:47;;;;;;;37.27;22.40;;;;;;;;;;5016002;28;20566;-69
2024/01/06 01:53:13;;;;;;;32.80;21.80;;;;;;;;;;5016016;28;20176;-70
2024/01/06 01:55:40;;;;;;;38.63;22.83;;;;;;;;;;5017233;28;20190;-70
2024/01/06 01:58:06;;;;;;;36.83;21.87;;;;;;;;;;5017034;28;20678;-69
2024/01/06 02:00:32;;;;;;;36.30;22.33;;;;;;;;;;5016235;28;20187;-70
2024/01/06 02:02:59;;;;;;;40.67;23.17;;;;;;;;;;5016987;28;20190;-70
2024/01/06 02:05:25;;;;;;;38.70;23.23;;;;;;;;;;5017091;28;20239;-69
2024/01/06 02:07:52;;;;;;;43.77;23.93;;;;;;;;;;5017441;28;20652;-70
2024/01/06 02:10:18;;;;;;;43.40;24.80;;;;;;;;;;5016953;28;20176;-70
2024/01/06 02:12:44;;;;;;;42.30;24.47;;;;;;;;;;5016429;28;20179;-69
2024/01/06 02:15:10;;;;;;;41.57;24.20;;;;;;;;;;5025506;28;20266;-70
2024/01/06 02:17:36;;;;;;;41.37;24.83;;;;;;;;;;5024092;28;20203;-71
2024/01/06 02:20:02;;;;;;;45.30;24.87;;;;;;;;;;5023479;28;20179;-69
2024/01/06 02:22:28;;;;;;;42.77;23.97;;;;;;;;;;5020737;28;20212;-69
2024/01/06 02:24:54;;;;;;;45.40;25.43;;;;;;;;;;5018047;28;20184;-70
2024/01/06 02:27:20;;;;;;;45.07;25.70;;;;;;;;;;5022272;28;20680;-69
2024/01/06 02:29:46;;;;;;;54.80;27.27;;;;;;;;;;5027827;28;20200;-69
2024/01/06 02:32:12;;;;;;;47.37;26.17;;;;;;;;;;5026438;28;20258;-69
2024/01/06 02:34:38;;;;;;;41.37;25.33;;;;;;;;;;5028278;28;20203;-68
2024/01/06 02:37:04;;;;;;;50.57;26.03;;;;;;;;;;5021476;28;20198;-69
2024/01/06 02:39:30;;;;;;;49.23;27.43;;;;;;;;;;5016398;28;20634;-69
2024/01/06 02:41:56;;;;;;;48.73;27.00;;;;;;;;;;5017103;28;20218;-70
2024/01/06 02:44:22;;;;;;;47.33;26.07;;;;;;;;;;5017106;28;20211;-68
2024/01/06 02:46:48;;;;;;;42.43;22.87;;;;;;;;;;5017285;28;20179;-69
2024/01/06 02:49:14;;;;;;;44.87;23.47;;;;;;;;;;5017117;28;20211;-69
2024/01/06 02:51:40;;;;;;;41.57;21.07;;;;;;;;;;5015549;28;20180;-69
2024/01/06 02:54:06;;;;;;;48.00;21.90;;;;;;;;;;5017193;28;20265;-69
2024/01/06 02:56:31;;;;;;;41.03;19.67;;;;;;;;;;5016870;28;20205;-69
2024/01/06 02:58:57;;;;;;;42.40;20.37;;;;;;;;;;5021887;28;20204;-71
2024/01/06 03:01:23;;;;;;;33.10;17.60;;;;;;;;;;5020929;28;20230;-69
2024/01/06 03:03:49;;;;;;;29.23;15.93;;;;;;;;;;5022674;28;20246;-71
2024/01/06 03:06:15;;;;;;;30.50;15.00;;;;;;;;;;5020634;28;20214;-70
2024/01/06 03:08:41;;;;;;;27.93;15.13;;;;;;;;;;5021701;28;20211;-69
2024/01/06 03:11:07;;;;;;;24.80;14.53;;;;;;;;;;5017396;28;20171;-69
2024/01/06 03:13:33;;;;;;;28.57;14.50;;;;;;;;;;5014143;28;20197;-70
2024/01/06 03:16:04;;;;;;;27.60;15.80;;;;;;;;;;5015070;28;20198;-69
2024/01/06 03:18:30;;;;;;;29.20;15.13;;;;;;;;;;5015679;28;20199;-70
2024/01/06 03:20:56;;;;;;;25.23;13.47;;;;;;;;;;5015466;28;20182;-70
2024/01/06 03:23:22;;;;;;;26.70;13.53;;;;;;;;;;5016075;28;20287;-70
2024/01/06 03:25:48;;;;;;;20.93;12.10;;;;;;;;;;5015694;28;20196;-69
2024/01/06 03:28:14;;;;;;;23.73;13.00;;;;;;;;;;5014662;28;20207;-70
2024/01/06 03:30:40;;;;;;;25.03;13.20;;;;;;;;;;5014931;28;20176;-70
2024/01/06 03:33:06;;;;;;;20.37;12.20;;;;;;;;;;5016535;28;20171;-70
2024/01/06 03:35:32;;;;;;;20.70;12.47;;;;;;;;;;5016719;28;20210;-70
2024/01/06 03:37:58;;;;;;;21.03;11.90;;;;;;;;;;5015017;28;20273;-69
2024/01/06 03:40:24;;;;;;;22.63;13.07;;;;;;;;;;5016108;28;20184;-69
2024/01/06 03:42:50;;;;;;;24.43;13.87;;;;;;;;;;5016161;28;20190;-69
2024/01/06 03:45:16;;;;;;;22.97;13.83;;;;;;;;;;5013920;28;20271;-70
2024/01/06 03:47:42;;;;;;;24.17;14.20;;;;;;;;;;5016326;28;20219;-69
2024/01/06 03:50:08;;;;;;;22.13;13.23;;;;;;;;;;5015303;28;20689;-69
2024/01/06 03:52:34;;;;;;;21.43;12.73;;;;;;;;;;5015764;28;20210;-69
2024/01/06 03:55:00;;;;;;;18.87;12.23;;;;;;;;;;5015301;28;20179;-69
2024/01/06 03:57:26;;;;;;;21.13;13.17;;;;;;;;;;5015096;28;20195;-69
2024/01/06 03:59:52;;;;;;;19.07;12.30;;;;;;;;;;5015711;28;20180;-69
2024/01/06 04:02:18;;;;;;;20.33;11.60;;;;;;;;;;5015718;28;20556;-69
2024/01/06 04:04:44;;;;;;;15.83;11.07;;;;;;;;;;5016365;28;20183;-69
2024/01/06 04:07:10;;;;;;;18.17;11.60;;;;;;;;;;5015125;28;20184;-70
2024/01/06 04:09:36;;;;;;;16.93;11.53;;;;;;;;;;5016963;28;20231;-69
2024/01/06 04:12:02;;;;;;;15.47;10.63;;;;;;;;;;5014385;28;20180;-69
2024/01/06 04:14:28;;;;;;;18.10;11.13;;;;;;;;;;5016095;28;20199;-69
2024/01/06 04:16:55;;;;;;;18.17;11.77;;;;;;;;;;5013990;28;20643;-68
2024/01/06 04:19:21;;;;;;;17.03;10.73;;;;;;;;;;5016116;28;20180;-69
2024/01/06 04:21:48;;;;;;;15.07;10.33;;;;;;;;;;5016739;28;20203;-69
2024/01/06 04:24:14;;;;;;;14.40;10.77;;;;;;;;;;5016844;28;20176;-70
2024/01/06 04:26:40;;;;;;;16.30;11.10;;;;;;;;;;5014592;28;20191;-69
2024/01/06 04:29:06;;;;;;;16.10;10.23;;;;;;;;;;5014966;28;20264;-69
2024/01/06 04:31:32;;;;;;;14.87;10.50;;;;;;;;;;5015484;28;20184;-69
2024/01/06 04:33:58;;;;;;;16.60;11.37;;;;;;;;;;5015694;28;20179;-69
2024/01/06 04:36:24;;;;;;;15.50;10.03;;;;;;;;;;5015095;28;20198;-68
2024/01/06 04:38:50;;;;;;;15.23;10.57;;;;;;;;;;5014390;28;20219;-69
2024/01/06 04:41:16;;;;;;;16.27;10.90;;;;;;;;;;5014246;28;20180;-69
2024/01/06 04:43:42;;;;;;;15.23;11.03;;;;;;;;;;5015060;28;20195;-69
2024/01/06 04:46:07;;;;;;;18.20;11.37;;;;;;;;;;5015198;28;20231;-69
2024/01/06 04:48:33;;;;;;;15.73;10.70;;;;;;;;;;5014147;28;20219;-70
2024/01/06 04:50:59;;;;;;;16.33;11.17;;;;;;;;;;5016169;28;20306;-69
2024/01/06 04:53:25;;;;;;;17.57;11.43;;;;;;;;;;5015923;28;20182;-69
2024/01/06 04:55:51;;;;;;;18.63;10.80;;;;;;;;;;5015788;28;20176;-70
2024/01/06 04:58:17;;;;;;;13.67;9.83;;;;;;;;;;5017318;28;20720;-70
2024/01/06 05:00:43;;;;;;;16.43;10.87;;;;;;;;;;5019903;28;20267;-70
2024/01/06 05:03:09;;;;;;;17.57;11.10;;;;;;;;;;5017678;28;20190;-70
2024/01/06 05:05:35;;;;;;;17.17;11.77;;;;;;;;;;5018912;28;20211;-70
2024/01/06 05:08:01;;;;;;;16.33;11.33;;;;;;;;;;5028999;28;20208;-72
2024/01/06 05:10:27;;;;;;;17.20;11.87;;;;;;;;;;5023624;28;20296;-70
2024/01/06 05:12:53;;;;;;;18.07;12.60;;;;;;;;;;5024633;28;20168;-69
2024/01/06 05:15:20;;;;;;;18.20;11.83;;;;;;;;;;5020153;28;20207;-69
2024/01/06 05:17:46;;;;;;;16.67;11.77;;;;;;;;;;5018570;28;20200;-70
2024/01/06 05:20:11;;;;;;;17.77;12.20;;;;;;;;;;5019836;28;20598;-71
2024/01/06 05:22:37;;;;;;;21.97;14.03;;;;;;;;;;5018322;28;20270;-70
2024/01/06 05:25:03;;;;;;;18.90;12.33;;;;;;;;;;5019339;28;20172;-70
2024/01/06 05:27:29;;;;;;;20.67;14.23;;;;;;;;;;5018797;28;20275;-70
2024/01/06 05:29:56;;;;;;;21.27;14.60;;;;;;;;;;5017787;28;20241;-70
2024/01/06 05:32:21;;;;;;;22.37;14.13;;;;;;;;;;5018026;28;20200;-70
2024/01/06 05:34:48;;;;;;;21.07;14.50;;;;;;;;;;5017798;28;20187;-70
2024/01/06 05:37:14;;;;;;;19.90;14.20;;;;;;;;;;5017354;28;20196;-70
2024/01/06 05:39:40;;;;;;;20.23;13.87;;;;;;;;;;5017959;28;20180;-70
2024/01/06 05:42:07;;;;;;;21.00;13.97;;;;;;;;;;5018307;28;20180;-70
2024/01/06 05:44:37;;;;;;;22.87;14.07;;;;;;;;;;5017643;28;20678;-70
2024/01/06 05:47:03;;;;;;;19.87;14.17;;;;;;;;;;5018535;28;20267;-70
2024/01/06 05:49:28;;;;;;;22.57;13.73;;;;;;;;;;5017770;28;20640;-70
2024/01/06 05:51:54;;;;;;;19.60;13.67;;;;;;;;;;5018408;28;20254;-70
2024/01/06 05:54:20;;;;;;;20.77;13.90;;;;;;;;;;5018229;28;20180;-69
2024/01/06 05:56:46;;;;;;;20.97;14.10;;;;;;;;;;5018628;28;20192;-69
2024/01/06 05:59:12;;;;;;;19.00;13.00;;;;;;;;;;5015499;28;20303;-69
2024/01/06 06:01:38;;;;;;;19.23;13.53;;;;;;;;;;5017188;28;20539;-70
2024/01/06 06:04:04;;;;;;;19.30;12.93;;;;;;;;;;5017186;28;20183;-69
2024/01/06 06:06:30;;;;;;;22.20;14.13;;;;;;;;;;5017510;28;20184;-69
2024/01/06 06:08:56;;;;;;;18.80;12.57;;;;;;;;;;5015502;28;20212;-71
2024/01/06 06:11:22;;;;;;;19.83;13.37;;;;;;;;;;5018670;28;20178;-71
2024/01/06 06:13:48;;;;;;;20.23;13.83;;;;;;;;;;5019062;28;20267;-69
2024/01/06 06:16:14;;;;;;;19.57;12.90;;;;;;;;;;5015708;28;20183;-69
2024/01/06 06:18:40;;;;;;;19.13;12.97;;;;;;;;;;5014746;28;20287;-69
2024/01/06 06:21:07;;;;;;;21.67;13.47;;;;;;;;;;5015629;28;20204;-70
2024/01/06 06:23:33;;;;;;;18.30;12.83;;;;;;;;;;5016208;28;20186;-69
2024/01/06 06:25:59;;;;;;;19.90;12.47;;;;;;;;;;5015675;28;20234;-69
2024/01/06 06:28:26;;;;;;;21.27;14.17;;;;;;;;;;5015739;28;20220;-68
2024/01/06 06:30:52;;;;;;;18.17;12.17;;;;;;;;;;5016111;28;20683;-70
2024/01/06 06:33:18;;;;;;;19.30;12.90;;;;;;;;;;5016420;28;20191;-69
2024/01/06 06:35:44;;;;;;;20.53;13.87;;;;;;;;;;5014385;28;20179;-69
2024/01/06 06:38:10;;;;;;;21.27;13.33;;;;;;;;;;5015341;28;20298;-71
2024/01/06 06:40:36;;;;;;;21.17;14.13;;;;;;;;;;5016026;28;20238;-69
2024/01/06 06:43:02;;;;;;;18.63;13.93;;;;;;;;;;5016150;28;20182;-70
2024/01/06 06:45:28;;;;;;;19.73;13.53;;;;;;;;;;5016311;28;20677;-69
2024/01/06 06:47:54;;;;;;;23.43;14.20;;;;;;;;;;5014011;28;20208;-69
2024/01/06 06:50:20;;;;;;;23.30;15.43;;;;;;;;;;5015562;28;20616;-69
2024/01/06 06:52:46;;;;;;;24.97;14.93;;;;;;;;;;5015423;28;20201;-70
2024/01/06 06:55:13;;;;;;;23.00;13.57;;;;;;;;;;5015862;28;20182;-70
2024/01/06 06:57:39;;;;;;;25.90;14.43;;;;;;;;;;5014988;28;20206;-70
2024/01/06 07:00:07;;;;;;;21.13;14.13;;;;;;;;;;5014323;28;20561;-70
2024/01/06 07:02:33;;;;;;;17.80;13.40;;;;;;;;;;5015383;28;20183;-70
2024/01/06 07:04:59;;;;;;;19.03;12.70;;;;;;;;;;5013936;28;20562;-70
2024/01/06 07:07:25;;;;;;;22.87;13.13;;;;;;;;;;5013957;28;20207;-70
2024/01/06 07:09:51;;;;;;;21.43;12.67;;;;;;;;;;5014142;28;20282;-70
2024/01/06 07:12:17;;;;;;;23.83;14.47;;;;;;;;;;5015379;28;20202;-70
2024/01/06 07:14:43;;;;;;;22.93;14.50;;;;;;;;;;5015637;28;20543;-70
2024/01/06 07:17:08;;;;;;;24.37;13.97;;;;;;;;;;5015759;28;20618;-70
2024/01/06 07:19:35;;;;;;;23.73;14.00;;;;;;;;;;5018097;28;20184;-70
2024/01/06 07:22:01;;;;;;;23.27;15.13;;;;;;;;;;5018473;28;20180;-70
2024/01/06 07:24:27;;;;;;;24.63;14.77;;;;;;;;;;5018024;28;20175;-70
2024/01/06 07:26:53;;;;;;;21.40;13.93;;;;;;;;;;5017052;28;20226;-70
2024/01/06 07:29:19;;;;;;;29.23;16.37;;;;;;;;;;5014994;28;20673;-70
2024/01/06 07:31:45;;;;;;;27.10;16.17;;;;;;;;;;5015704;28;20180;-70
2024/01/06 07:34:11;;;;;;;25.57;15.70;;;;;;;;;;5013920;28;20191;-67
2024/01/06 07:36:38;;;;;;;28.20;16.03;;;;;;;;;;5015240;28;20317;-70
2024/01/06 07:39:05;;;;;;;26.90;16.50;;;;;;;;;;5015325;28;20215;-72
2024/01/06 07:41:31;;;;;;;31.30;17.13;;;;;;;;;;5015573;28;20267;-72
2024/01/06 07:43:58;;;;;;;27.60;15.97;;;;;;;;;;5014252;28;20212;-71
2024/01/06 07:46:24;;;;;;;29.33;15.83;;;;;;;;;;5015588;28;20253;-69
2024/01/06 07:48:50;;;;;;;34.73;17.03;;;;;;;;;;5015065;28;20203;-71
2024/01/06 07:51:16;;;;;;;25.87;16.10;;;;;;;;;;5014774;28;20183;-71
2024/01/06 07:53:42;;;;;;;32.70;17.73;;;;;;;;;;5014980;28;20184;-69
2024/01/06 07:56:08;;;;;;;31.83;18.13;;;;;;;;;;5014856;28;20254;-70
2024/01/06 07:58:34;;;;;;;33.67;19.03;;;;;;;;;;5015381;28;20207;-69
2024/01/06 08:01:01;;;;;;;37.87;20.40;;;;;;;;;;5024905;28;20180;-70
2024/01/06 08:03:27;;;;;;;38.30;20.50;;;;;;;;;;5030701;28;20180;-70
2024/01/06 08:05:54;;;;;;;36.63;20.37;;;;;;;;;;5024932;28;20187;-70
2024/01/06 08:08:20;;;;;;;30.47;18.13;;;;;;;;;;5023015;28;20294;-69
2024/01/06 08:10:46;;;;;;;38.57;20.03;;;;;;;;;;5019780;28;20264;-69
2024/01/06 08:13:12;;;;;;;30.63;17.87;;;;;;;;;;5023212;28;20183;-70
2024/01/06 08:15:38;;;;;;;34.97;18.60;;;;;;;;;;5017734;28;20191;-70
2024/01/06 08:18:04;;;;;;;34.47;18.33;;;;;;;;;;5022014;28;20345;-69
2024/01/06 08:20:30;;;;;;;38.27;20.27;;;;;;;;;;5019721;28;20184;-69
2024/01/06 08:22:56;;;;;;;42.90;23.23;;;;;;;;;;5022076;28;20220;-69
2024/01/06 08:25:22;;;;;;;43.30;22.63;;;;;;;;;;5019307;28;20187;-70
2024/01/06 08:27:48;;;;;;;44.80;22.57;;;;;;;;;;5022618;28;20195;-70
2024/01/06 08:30:14;;;;;;;48.17;23.37;;;;;;;;;;5023987;28;20278;-70
2024/01/06 08:32:40;;;;;;;47.53;24.07;;;;;;;;;;5027342;28;20179;-71
2024/01/06 08:35:06;;;;;;;46.73;22.60;;;;;;;;;;5032174;28;20176;-70
2024/01/06 08:37:32;;;;;;;40.23;21.23;;;;;;;;;;5032000;28;20771;-69
2024/01/06 08:39:58;;;;;;;43.93;23.17;;;;;;;;;;5031548;28;20199;-70
2024/01/06 08:42:25;;;;;;;44.10;23.63;;;;;;;;;;5031524;28;20179;-70
2024/01/06 08:44:51;;;;;;;37.53;22.43;;;;;;;;;;5029220;28;20183;-70
2024/01/06 08:47:17;;;;;;;37.67;21.30;;;;;;;;;;5030331;28;20629;-70
2024/01/06 08:49:43;;;;;;;42.57;21.87;;;;;;;;;;5028983;28;20212;-69
2024/01/06 08:52:09;;;;;;;41.73;24.63;;;;;;;;;;5023721;28;20207;-70
2024/01/06 08:54:35;;;;;;;43.53;24.17;;;;;;;;;;5030245;28;20191;-71
2024/01/06 08:57:01;;;;;;;44.07;24.37;;;;;;;;;;5027122;28;20180;-69
2024/01/06 08:59:27;;;;;;;44.97;23.40;;;;;;;;;;5027813;28;20272;-69
2024/01/06 09:01:53;;;;;;;38.87;22.43;;;;;;;;;;5017754;28;20233;-69
2024/01/06 09:04:19;;;;;;;44.80;22.03;;;;;;;;;;5018192;28;20184;-69
2024/01/06 09:06:46;;;;;;;36.47;21.13;;;;;;;;;;5018008;28;20187;-70
2024/01/06 09:09:13;;;;;;;35.87;20.10;;;;;;;;;;5017863;28;20701;-69
2024/01/06 09:11:39;;;;;;;37.00;21.20;;;;;;;;;;5018127;28;20259;-69
2024/01/06 09:14:05;;;;;;;38.00;19.90;;;;;;;;;;5017635;28;20269;-69
2024/01/06 09:16:31;;;;;;;44.27;19.87;;;;;;;;;;5017329;28;20180;-68
2024/01/06 09:18:57;;;;;;;40.60;27.07;;;;;;;;;;5017363;28;20689;-70
2024/01/06 09:21:23;;;;;;;35.17;21.23;;;;;;;;;;5040272;23;20736;-69
2024/01/06 09:23:49;;;;;;;35.23;18.90;;;;;;;;;;5018203;28;20172;-69
2024/01/06 09:26:16;;;;;;;31.50;18.73;;;;;;;;;;5017588;28;20175;-69
2024/01/06 09:28:42;;;;;;;30.93;16.40;;;;;;;;;;5001036;28;20214;-70
2024/01/06 09:31:08;;;;;;;31.47;17.37;;;;;;;;;;5019504;28;20286;-69
2024/01/06 09:33:34;;;;;;;30.77;18.10;;;;;;;;;;5019327;28;20179;-70
2024/01/06 09:36:00;;;;;;;31.40;18.30;;;;;;;;;;5001953;28;20183;-69
2024/01/06 09:38:26;;;;;;;40.60;19.33;;;;;;;;;;5019869;28;20207;-68
2024/01/06 09:40:53;;;;;;;44.90;21.80;;;;;;;;;;5019135;28;20670;-68
2024/01/06 09:43:19;;;;;;;40.70;21.33;;;;;;;;;;5002106;28;20190;-68
2024/01/06 09:45:49;;;;;;;39.80;20.17;;;;;;;;;;5019494;28;20184;-69
2024/01/06 09:48:15;;;;;;;43.63;20.57;;;;;;;;;;5001246;28;20670;-69
2024/01/06 09:50:42;;;;;;;36.03;18.50;;;;;;;;;;4999960;28;20207;-68
2024/01/06 09:53:10;;;;;;;33.70;16.90;;;;;;;;;;5017507;28;20531;-68
2024/01/06 09:55:36;;;;;;;30.87;16.93;;;;;;;;;;5017743;28;20211;-68
2024/01/06 09:58:02;;;;;;;28.10;16.17;;;;;;;;;;5017665;28;20548;-68
2024/01/06 10:00:29;;;;;;;33.43;17.57;;;;;;;;;;5000769;28;20200;-68
2024/01/06 10:02:55;;;;;;;35.10;17.63;;;;;;;;;;5018688;28;20225;-68
2024/01/06 10:05:21;;;;;;;33.03;18.60;;;;;;;;;;5000232;28;20211;-68
2024/01/06 10:07:47;;;;;;;32.20;17.60;;;;;;;;;;5020239;28;20243;-69
2024/01/06 10:10:14;;;;;;;33.17;17.03;;;;;;;;;;5014669;28;20203;-69
2024/01/06 10:12:40;;;;;;;38.30;17.23;;;;;;;;;;5032536;28;20235;-69
2024/01/06 10:15:09;;;;;;;31.43;16.33;;;;;;;;;;5013282;28;20219;-68
2024/01/06 10:17:38;;;;;;;29.23;16.03;;;;;;;;;;5022760;28;20184;-68
2024/01/06 10:20:15;;;;;;;27.40;15.43;;;;;;;;;;5018107;28;20203;-69
2024/01/06 10:22:42;;;;;;;27.30;14.70;;;;;;;;;;5018929;28;20234;-71
2024/01/06 10:25:09;;;;;;;24.43;14.43;;;;;;;;;;5000543;28;20179;-68
2024/01/06 10:27:36;;;;;;;26.60;15.60;;;;;;;;;;5000967;28;20184;-69
2024/01/06 10:30:02;;;;;;;32.27;16.50;;;;;;;;;;5016939;28;20211;-69
2024/01/06 10:32:31;;;;;;;29.63;16.03;;;;;;;;;;5000583;28;20603;-69
2024/01/06 10:34:57;;;;;;;28.33;16.43;;;;;;;;;;5018130;28;20519;-68
2024/01/06 10:37:24;;;;;;;26.10;15.20;;;;;;;;;;5000252;28;20183;-70
2024/01/06 10:40:05;;;;;;;36.20;17.77;;;;;;;;;;5018319;28;20175;-69
2024/01/06 10:42:31;;;;;;;32.63;18.27;;;;;;;;;;5017679;28;20607;-69
2024/01/06 10:44:57;;;;;;;36.60;19.70;;;;;;;;;;5015657;28;20183;-69
2024/01/06 10:47:24;;;;;;;40.47;21.40;;;;;;;;;;5015291;28;20713;-69
2024/01/06 10:49:50;;;;;;;36.40;21.47;;;;;;;;;;4997443;28;20674;-69
2024/01/06 10:52:16;;;;;;;40.53;21.30;;;;;;;;;;5016183;28;20540;-68
2024/01/06 10:54:42;;;;;;;43.27;23.70;;;;;;;;;;5014909;28;20231;-69
2024/01/06 10:57:09;;;;;;;44.70;24.60;;;;;;;;;;4997546;28;20179;-69
2024/01/06 10:59:35;;;;;;;44.77;24.20;;;;;;;;;;4997647;28;20207;-69
2024/01/06 11:02:02;;;;;;;42.03;22.73;;;;;;;;;;5015015;28;20175;-69
2024/01/06 11:04:28;;;;;;;43.17;23.13;;;;;;;;;;5015490;28;20258;-69
2024/01/06 11:06:54;;;;;;;35.97;20.07;;;;;;;;;;5016130;28;20175;-69
2024/01/06 11:09:23;;;;;;;32.73;18.73;;;;;;;;;;5015300;28;20204;-69
2024/01/06 11:11:49;;;;;;;33.67;19.13;;;;;;;;;;4998785;28;20203;-68
2024/01/06 11:14:25;;;;;;;38.57;20.23;;;;;;;;;;5015889;28;20176;-69
2024/01/06 11:16:52;;;;;;;43.00;22.47;;;;;;;;;;5016162;28;20199;-69
2024/01/06 11:19:43;;;;;;;43.03;22.87;;;;;;;;;;5015509;28;20180;-69
2024/01/06 11:22:18;;;;;;;46.17;24.17;;;;;;;;;;5015915;28;20164;-69
2024/01/06 11:24:48;;;;;;;41.67;22.20;;;;;;;;;;5015468;28;20254;-69
2024/01/06 11:27:35;;;;;;;44.83;23.97;;;;;;;;;;5015943;28;20183;-69
2024/01/06 11:30:05;;;;;;;42.90;24.00;;;;;;;;;;5015375;28;20219;-68
2024/01/06 11:32:42;;;;;;;47.37;24.07;;;;;;;;;;5015577;28;20544;-69
2024/01/06 11:35:11;;;;;;;43.30;24.47;;;;;;;;;;5014799;28;20156;-69
2024/01/06 11:37:41;;;;;;;46.70;23.83;;;;;;;;;;5015023;28;20176;-68
2024/01/06 11:40:12;;;;;;;45.57;24.77;;;;;;;;;;5015852;28;20704;-68
2024/01/06 11:42:38;;;;;;;42.83;23.30;;;;;;;;;;4998356;28;20193;-68
2024/01/06 11:45:08;;;;;;;44.47;22.73;;;;;;;;;;5000092;28;20183;-68
2024/01/06 11:47:34;;;;;;;44.23;23.20;;;;;;;;;;5033743;28;20211;-69
2024/01/06 11:50:04;;;;;;;44.03;21.53;;;;;;;;;;5033990;28;20214;-69
2024/01/06 11:52:30;;;;;;;44.17;22.40;;;;;;;;;;5032980;28;20199;-69
2024/01/06 11:54:56;;;;;;;42.33;21.73;;;;;;;;;;5021815;28;20180;-69
2024/01/06 11:57:22;;;;;;;35.20;21.13;;;;;;;;;;5016154;28;20179;-68
2024/01/06 11:59:49;;;;;;;40.93;21.13;;;;;;;;;;5014888;28;20187;-69
2024/01/06 12:02:18;;;;;;;38.80;19.90;;;;;;;;;;5014786;28;20546;-68
2024/01/06 12:04:48;;;;;;;36.17;18.67;;;;;;;;;;4997133;28;20247;-68
2024/01/06 12:07:14;;;;;;;38.60;20.07;;;;;;;;;;5017694;28;20180;-68
2024/01/06 12:09:40;;;;;;;37.07;19.43;;;;;;;;;;5019780;28;20295;-69
2024/01/06 12:12:07;;;;;;;40.93;21.57;;;;;;;;;;5019759;28;20195;-69
2024/01/06 12:14:33;;;;;;;39.20;19.97;;;;;;;;;;5018788;28;20729;-70
2024/01/06 12:17:04;;;;;;;39.70;19.40;;;;;;;;;;5019632;28;20199;-68
2024/01/06 12:19:31;;;;;;;38.20;19.63;;;;;;;;;;5019364;28;20168;-68
2024/01/06 12:21:57;;;;;;;40.83;20.07;;;;;;;;;;5003175;28;20277;-69
2024/01/06 12:24:23;;;;;;;36.87;20.60;;;;;;;;;;5001682;28;20566;-68
2024/01/06 12:26:51;;;;;;;31.97;17.97;;;;;;;;;;5019107;28;20176;-70
2024/01/06 12:29:17;;;;;;;35.60;18.13;;;;;;;;;;5018456;28;20203;-69
2024/01/06 12:31:44;;;;;;;35.07;19.17;;;;;;;;;;5000627;28;20615;-69
2024/01/06 12:34:10;;;;;;;32.40;17.20;;;;;;;;;;5000409;28;20243;-68
2024/01/06 12:36:37;;;;;;;29.80;16.23;;;;;;;;;;5017956;28;20175;-68
2024/01/06 12:39:04;;;;;;;35.13;16.33;;;;;;;;;;5018092;28;20211;-67
2024/01/06 12:41:33;;;;;;;31.00;15.40;;;;;;;;;;5000568;28;20211;-69
2024/01/06 12:43:59;;;;;;;35.20;17.83;;;;;;;;;;5017921;28;20176;-67
2024/01/06 12:46:24;;;;;;;38.87;19.07;;;;;;;;;;5017634;28;20226;-69
2024/01/06 12:48:50;;;;;;;35.60;17.97;;;;;;;;;;5018719;28;20204;-69
2024/01/06 12:51:16;;;;;;;32.10;15.87;;;;;;;;;;5017659;28;20196;-67
2024/01/06 12:53:42;;;;;;;28.43;14.20;;;;;;;;;;5018128;28;20184;-69
2024/01/06 12:56:08;;;;;;;30.13;15.37;;;;;;;;;;5018939;28;20183;-69
2024/01/06 12:58:34;;;;;;;28.27;16.17;;;;;;;;;;5018205;28;20219;-68
2024/01/06 13:01:02;;;;;;;23.90;12.67;;;;;;;;;;5018281;28;20195;-68
2024/01/06 13:03:28;;;;;;;29.67;15.93;;;;;;;;;;5018592;28;20262;-68
2024/01/06 13:05:54;;;;;;;30.47;15.13;;;;;;;;;;5018478;28;20640;-68
2024/01/06 13:08:21;;;;;;;26.67;14.70;;;;;;;;;;5018570;28;20274;-69
2024/01/06 13:10:47;;;;;;;28.67;14.43;;;;;;;;;;5017838;28;20580;-68
2024/01/06 13:13:12;;;;;;;23.80;13.40;;;;;;;;;;5017529;28;20179;-69
2024/01/06 13:15:39;;;;;;;24.13;14.83;;;;;;;;;;5017808;28;20180;-71
2024/01/06 13:18:05;;;;;;;28.87;16.87;;;;;;;;;;5017803;28;20654;-70
2024/01/06 13:20:31;;;;;;;28.87;16.53;;;;;;;;;;5018717;28;20234;-70
2024/01/06 13:22:57;;;;;;;29.67;18.60;;;;;;;;;;5017770;28;20635;-67
2024/01/06 13:25:23;;;;;;;26.30;15.07;;;;;;;;;;5000516;28;20182;-68
2024/01/06 13:27:50;;;;;;;28.37;16.20;;;;;;;;;;5017436;28;20615;-71
2024/01/06 13:30:16;;;;;;;29.10;15.73;;;;;;;;;;4999302;28;20592;-68
2024/01/06 13:32:43;;;;;;;26.03;16.33;;;;;;;;;;5017226;28;20179;-68
2024/01/06 13:35:11;;;;;;;25.43;16.37;;;;;;;;;;5016933;28;20234;-68
2024/01/06 13:37:37;;;;;;;23.97;16.17;;;;;;;;;;5017490;28;20646;-69
2024/01/06 13:40:03;;;;;;;29.27;17.63;;;;;;;;;;5018037;28;20295;-68
2024/01/06 13:42:29;;;;;;;27.87;16.13;;;;;;;;;;5017058;28;20596;-69
2024/01/06 13:44:55;;;;;;;27.97;16.77;;;;;;;;;;5016555;28;20646;-68
2024/01/06 13:47:21;;;;;;;24.77;15.47;;;;;;;;;;4998901;28;20184;-68
2024/01/06 13:49:47;;;;;;;27.27;17.07;;;;;;;;;;5016799;28;20211;-68
2024/01/06 13:52:13;;;;;;;33.53;18.20;;;;;;;;;;4999905;28;20190;-68
2024/01/06 13:54:39;;;;;;;31.03;18.20;;;;;;;;;;5017537;28;20265;-67
2024/01/06 13:57:05;;;;;;;29.67;17.50;;;;;;;;;;4999293;28;20230;-68
2024/01/06 13:59:31;;;;;;;28.80;16.57;;;;;;;;;;5015987;28;20187;-68
2024/01/06 14:01:57;;;;;;;29.60;16.20;;;;;;;;;;5016132;28;20206;-70
2024/01/06 14:04:23;;;;;;;26.60;16.43;;;;;;;;;;4998889;28;20256;-68
2024/01/06 14:06:55;;;;;;;29.30;17.10;;;;;;;;;;5016008;28;20191;-69
2024/01/06 14:09:21;;;;;;;28.57;17.23;;;;;;;;;;5015957;28;20188;-69
2024/01/06 14:11:47;;;;;;;30.40;18.20;;;;;;;;;;5015947;28;20224;-69